createdAt,value
2019-03-20T00:01:11.057Z,20.43
2019-03-20T00:03:41.222Z,16.30
2019-03-20T00:06:11.979Z,17.87
2019-03-20T00:08:42.734Z,22.83
2019-03-20T00:11:13.793Z,17.20
2019-03-20T00:13:44.516Z,19.50
2019-03-20T00:16:14.772Z,22.90
2019-03-20T00:18:45.010Z,23.40
2019-03-20T00:21:16.165Z,19.07
2019-03-20T00:23:47.651Z,17.17
2019-03-20T00:26:19.271Z,21.50
2019-03-20T00:28:49.508Z,25.63
2019-03-20T00:31:20.577Z,21.57
2019-03-20T00:33:50.841Z,21.33
2019-03-20T00:36:21.810Z,19.63
2019-03-20T00:38:52.688Z,19.17
2019-03-20T00:41:25.716Z,17.27
2019-03-20T00:43:56.210Z,24.00
2019-03-20T00:46:26.422Z,23.03
2019-03-20T00:48:58.264Z,19.17
2019-03-20T00:51:29.765Z,22.93
2019-03-20T00:54:00.911Z,19.17
2019-03-20T00:56:32.908Z,18.80
2019-03-20T00:59:03.423Z,20.47
2019-03-20T01:01:34.068Z,18.20
2019-03-20T01:04:04.892Z,22.77
2019-03-20T01:06:35.506Z,25.43
2019-03-20T01:09:08.119Z,19.73
2019-03-20T01:11:39.183Z,19.87
2019-03-20T01:14:10.125Z,16.27
2019-03-20T01:16:40.483Z,18.40
2019-03-20T01:19:10.907Z,18.13
2019-03-20T01:21:42.248Z,17.13
2019-03-20T01:24:12.685Z,21.77
2019-03-20T01:26:43.384Z,16.73
2019-03-20T01:29:14.046Z,15.23
2019-03-20T01:31:44.741Z,19.10
2019-03-20T01:34:14.904Z,21.43
2019-03-20T01:36:46.361Z,17.53
2019-03-20T01:39:18.219Z,20.73
2019-03-20T01:41:50.474Z,23.40
2019-03-20T01:44:20.925Z,16.20
2019-03-20T01:46:52.110Z,20.50
2019-03-20T01:49:23.250Z,19.50
2019-03-20T01:51:53.997Z,27.10
2019-03-20T01:54:24.516Z,18.40
2019-03-20T01:56:54.704Z,20.70
2019-03-20T01:59:25.812Z,18.67
2019-03-20T02:01:56.838Z,19.37
2019-03-20T02:04:28.399Z,20.67
2019-03-20T02:06:58.562Z,19.93
2019-03-20T02:09:28.760Z,25.07
2019-03-20T02:12:00.215Z,23.60
2019-03-20T02:14:31.466Z,28.50
2019-03-20T02:17:01.618Z,20.57
2019-03-20T02:19:31.842Z,21.37
2019-03-20T02:22:02.419Z,17.70
2019-03-20T02:24:33.199Z,21.50
2019-03-20T02:27:03.550Z,16.87
2019-03-20T02:29:34.209Z,19.13
2019-03-20T02:32:05.696Z,17.73
2019-03-20T02:34:36.664Z,21.67
2019-03-20T02:37:08.199Z,19.70
2019-03-20T02:39:39.511Z,20.97
2019-03-20T02:42:09.724Z,21.43
2019-03-20T02:44:40.190Z,20.60
2019-03-20T02:47:10.373Z,18.93
2019-03-20T02:49:41.943Z,20.60
2019-03-20T02:52:12.877Z,23.80
2019-03-20T02:54:44.052Z,20.43
2019-03-20T02:57:17.338Z,21.17
2019-03-20T02:59:46.734Z,23.03
2019-03-20T03:02:18.105Z,19.73
2019-03-20T03:04:50.089Z,21.70
2019-03-20T03:07:21.141Z,19.93
2019-03-20T03:09:51.319Z,22.87
2019-03-20T03:12:21.680Z,20.73
2019-03-20T03:14:51.962Z,23.20
2019-03-20T03:17:22.108Z,23.83
2019-03-20T03:19:53.525Z,21.90
2019-03-20T03:22:24.487Z,24.03
2019-03-20T03:24:54.719Z,21.23
2019-03-20T03:27:25.609Z,20.10
2019-03-20T03:29:56.798Z,24.80
2019-03-20T03:32:27.002Z,20.50
2019-03-20T03:34:58.075Z,23.27
2019-03-20T03:37:28.708Z,19.73
2019-03-20T03:40:00.637Z,18.13
2019-03-20T03:42:31.435Z,20.30
2019-03-20T03:45:01.637Z,22.07
2019-03-20T03:47:31.829Z,19.37
2019-03-20T03:50:03.518Z,20.37
2019-03-20T03:52:35.367Z,23.33
2019-03-20T03:55:08.754Z,24.67
2019-03-20T03:57:40.013Z,21.33
2019-03-20T04:00:12.484Z,25.93
2019-03-20T04:02:43.749Z,21.43
2019-03-20T04:05:16.568Z,21.00
2019-03-20T04:07:46.714Z,19.83
2019-03-20T04:10:17.026Z,22.10
2019-03-20T04:12:47.936Z,22.40
2019-03-20T04:15:18.637Z,19.83
2019-03-20T04:17:48.822Z,21.20
2019-03-20T04:20:19.595Z,22.03
2019-03-20T04:22:50.222Z,19.50
2019-03-20T04:25:20.842Z,22.87
2019-03-20T04:27:51.402Z,19.23
2019-03-20T04:30:21.930Z,17.13
2019-03-20T04:32:52.138Z,20.50
2019-03-20T04:35:23.578Z,21.43
2019-03-20T04:37:54.323Z,22.43
2019-03-20T04:40:25.153Z,21.70
2019-03-20T04:42:55.450Z,26.43
2019-03-20T04:45:25.596Z,20.13
2019-03-20T04:47:55.751Z,22.47
2019-03-20T04:50:27.388Z,23.40
2019-03-20T04:52:59.029Z,17.00
2019-03-20T04:55:30.493Z,19.47
2019-03-20T04:58:00.925Z,25.73
2019-03-20T05:00:31.780Z,19.07
2019-03-20T05:03:02.249Z,23.27
2019-03-20T05:05:32.400Z,26.00
2019-03-20T05:08:03.278Z,25.90
2019-03-20T05:10:34.324Z,22.43
2019-03-20T05:13:05.424Z,24.97
2019-03-20T05:15:36.063Z,20.83
2019-03-20T05:18:07.304Z,21.37
2019-03-20T05:20:37.875Z,21.53
2019-03-20T05:23:09.830Z,25.33
2019-03-20T05:25:40.011Z,22.47
2019-03-20T05:28:10.184Z,17.10
2019-03-20T05:30:40.657Z,20.30
2019-03-20T05:33:12.914Z,25.23
2019-03-20T05:35:43.445Z,23.57
2019-03-20T05:38:14.630Z,28.53
2019-03-20T05:40:47.782Z,23.10
2019-03-20T05:43:19.493Z,27.63
2019-03-20T05:45:49.768Z,20.37
2019-03-20T05:48:20.005Z,21.80
2019-03-20T05:50:50.600Z,18.70
2019-03-20T05:53:21.203Z,21.63
2019-03-20T05:56:31.083Z,22.77
2019-03-20T05:59:03.351Z,19.93
2019-03-20T06:01:33.868Z,21.10
2019-03-20T06:04:04.473Z,23.77
2019-03-20T06:06:36.664Z,24.17
2019-03-20T06:09:10.874Z,17.43
2019-03-20T06:11:41.822Z,24.00
2019-03-20T06:14:15.185Z,19.10
2019-03-20T06:16:46.186Z,28.63
2019-03-20T06:19:16.776Z,25.83
2019-03-20T06:21:47.309Z,23.37
2019-03-20T06:24:17.470Z,22.93
2019-03-20T06:26:47.869Z,27.13
2019-03-20T06:29:20.249Z,30.97
2019-03-20T06:31:52.016Z,22.20
2019-03-20T06:34:23.069Z,27.07
2019-03-20T06:36:54.383Z,23.30
2019-03-20T06:39:26.329Z,21.47
2019-03-20T06:41:58.371Z,27.47
2019-03-20T06:44:28.801Z,22.67
2019-03-20T06:47:00.073Z,28.57
2019-03-20T06:49:31.258Z,24.43
2019-03-20T06:52:01.525Z,23.03
2019-03-20T06:54:32.335Z,24.07
2019-03-20T06:57:02.500Z,27.03
2019-03-20T07:00:12.373Z,32.20
2019-03-20T07:02:48.643Z,24.90
2019-03-20T07:05:56.003Z,23.83
2019-03-20T07:08:28.627Z,23.90
2019-03-20T07:11:11.838Z,24.17
2019-03-20T07:13:41.996Z,21.40
2019-03-20T07:16:12.266Z,20.43
2019-03-20T07:18:44.140Z,28.27
2019-03-20T07:21:14.815Z,21.30
2019-03-20T07:23:45.294Z,23.50
2019-03-20T07:26:17.118Z,24.73
2019-03-20T07:28:49.122Z,24.83
2019-03-20T07:31:20.757Z,27.33
2019-03-20T07:33:54.284Z,21.83
2019-03-20T07:36:32.921Z,20.13
2019-03-20T07:39:04.438Z,20.63
2019-03-20T07:41:34.681Z,19.07
2019-03-20T07:44:07.728Z,22.17
2019-03-20T07:46:40.731Z,14.63
2019-03-20T07:49:12.617Z,18.80
2019-03-20T07:51:45.428Z,29.97
2019-03-20T07:54:16.819Z,18.03
2019-03-20T07:56:49.055Z,24.73
2019-03-20T07:59:19.594Z,27.83
2019-03-20T08:01:51.050Z,25.60
2019-03-20T08:04:21.318Z,24.27
2019-03-20T08:06:53.454Z,30.80
2019-03-20T08:09:25.665Z,19.97
2019-03-20T08:11:56.428Z,28.07
2019-03-20T08:14:26.617Z,24.20
2019-03-20T08:16:57.918Z,19.20
2019-03-20T08:19:28.166Z,24.63
2019-03-20T08:21:58.346Z,19.43
2019-03-20T08:24:29.839Z,27.40
2019-03-20T08:27:00.547Z,23.97
2019-03-20T08:29:30.777Z,20.37
2019-03-20T08:32:00.961Z,21.17
2019-03-20T08:34:32.195Z,23.73
2019-03-20T08:37:02.610Z,29.83
2019-03-20T08:39:34.551Z,18.37
2019-03-20T08:42:05.180Z,24.10
2019-03-20T08:44:36.072Z,21.53
2019-03-20T08:47:06.688Z,27.53
2019-03-20T08:49:37.314Z,24.90
2019-03-20T08:52:09.940Z,20.63
2019-03-20T08:54:41.019Z,19.77
2019-03-20T08:57:12.130Z,21.37
2019-03-20T08:59:43.660Z,21.37
2019-03-20T09:02:18.820Z,22.93
2019-03-20T09:04:51.896Z,24.70
2019-03-20T09:07:23.072Z,22.83
2019-03-20T09:09:54.165Z,22.30
2019-03-20T09:12:24.643Z,17.10
2019-03-20T09:14:54.849Z,26.23
2019-03-20T09:17:25.506Z,19.83
2019-03-20T09:19:55.665Z,21.70
2019-03-20T09:22:25.887Z,23.57
2019-03-20T09:24:56.068Z,23.93
2019-03-20T09:27:26.213Z,28.17
2019-03-20T09:29:58.029Z,19.97
2019-03-20T09:32:29.092Z,20.50
2019-03-20T09:35:00.804Z,21.37
2019-03-20T09:37:31.475Z,22.67
2019-03-20T09:40:02.922Z,20.80
2019-03-20T09:42:33.954Z,24.90
2019-03-20T09:45:06.862Z,22.63
2019-03-20T09:47:38.490Z,19.70
2019-03-20T09:50:11.761Z,24.57
2019-03-20T09:52:42.394Z,27.77
2019-03-20T09:55:13.038Z,25.13
2019-03-20T09:57:43.615Z,22.07
2019-03-20T10:00:22.732Z,24.20
2019-03-20T10:02:53.334Z,22.30
2019-03-20T10:05:23.825Z,15.60
2019-03-20T10:07:54.343Z,19.20
2019-03-20T10:10:24.514Z,22.03
2019-03-20T10:12:55.149Z,20.40
2019-03-20T10:15:26.026Z,25.70
2019-03-20T10:17:56.310Z,17.83
2019-03-20T10:20:28.911Z,18.87
2019-03-20T10:22:59.218Z,26.53
2019-03-20T10:25:29.397Z,19.67
2019-03-20T10:27:59.581Z,26.60
2019-03-20T10:30:31.644Z,18.57
2019-03-20T10:33:02.192Z,17.80
2019-03-20T10:35:34.042Z,17.80
2019-03-20T10:38:05.305Z,20.07
2019-03-20T10:40:38.812Z,21.87
2019-03-20T10:43:09.828Z,21.67
2019-03-20T10:45:42.833Z,22.93
2019-03-20T10:48:13.599Z,22.10
2019-03-20T10:50:45.063Z,17.17
2019-03-20T10:53:16.475Z,26.47
2019-03-20T10:55:46.635Z,20.80
2019-03-20T10:58:16.852Z,15.07
2019-03-20T11:00:48.085Z,17.30
2019-03-20T11:03:18.980Z,20.43
2019-03-20T11:05:51.376Z,23.10
2019-03-20T11:08:23.581Z,20.57
2019-03-20T11:10:54.738Z,25.03
2019-03-20T11:13:26.522Z,18.87
2019-03-20T11:15:58.931Z,20.07
2019-03-20T11:18:32.182Z,17.73
2019-03-20T11:21:03.069Z,21.97
2019-03-20T11:23:38.691Z,20.67
2019-03-20T11:26:09.794Z,22.53
2019-03-20T11:28:41.374Z,23.80
2019-03-20T11:31:20.714Z,21.80
2019-03-20T11:33:53.110Z,24.93
2019-03-20T11:36:25.237Z,20.53
2019-03-20T11:39:00.031Z,16.20
2019-03-20T11:41:30.247Z,22.83
2019-03-20T11:44:01.426Z,16.70
2019-03-20T11:46:32.878Z,22.33
2019-03-20T11:49:03.171Z,24.53
2019-03-20T11:51:33.735Z,21.90
2019-03-20T11:54:05.915Z,22.87
2019-03-20T11:56:36.084Z,26.73
2019-03-20T11:59:06.253Z,17.17
2019-03-20T12:01:37.060Z,19.47
2019-03-20T12:04:07.690Z,26.77
2019-03-20T12:06:37.976Z,23.13
2019-03-20T12:09:10.459Z,22.17
2019-03-20T12:11:46.148Z,26.60
2019-03-20T12:14:15.780Z,20.43
2019-03-20T12:16:46.751Z,22.27
2019-03-20T12:19:17.393Z,21.47
2019-03-20T12:21:49.389Z,17.53
2019-03-20T12:24:20.053Z,19.20
2019-03-20T12:26:51.578Z,22.27
2019-03-20T12:29:22.556Z,19.03
2019-03-20T12:31:53.154Z,24.70
2019-03-20T12:34:23.868Z,25.90
2019-03-20T12:36:56.535Z,25.27
2019-03-20T12:39:26.852Z,22.70
2019-03-20T12:41:58.284Z,19.17
2019-03-20T12:44:31.847Z,20.77
2019-03-20T12:47:03.610Z,21.87
2019-03-20T12:49:35.427Z,17.83
2019-03-20T12:52:05.610Z,33.27
2019-03-20T12:54:37.300Z,20.27
2019-03-20T12:57:09.623Z,10.70
2019-03-20T12:59:40.270Z,13.47
2019-03-20T13:02:11.125Z,13.57
2019-03-20T13:04:41.763Z,21.33
2019-03-20T13:07:11.951Z,19.67
2019-03-20T13:09:42.567Z,12.47
2019-03-20T13:12:13.767Z,13.60
2019-03-20T13:14:43.955Z,17.13
2019-03-20T13:17:16.631Z,13.47
2019-03-20T13:19:48.374Z,17.37
2019-03-20T13:22:21.361Z,17.00
2019-03-20T13:24:52.421Z,12.00
2019-03-20T13:27:23.846Z,12.67
2019-03-20T13:29:54.807Z,14.80
2019-03-20T13:32:25.745Z,17.40
2019-03-20T13:34:56.520Z,11.70
2019-03-20T13:37:26.755Z,13.30
2019-03-20T13:39:56.946Z,11.40
2019-03-20T13:42:27.965Z,10.53
2019-03-20T13:44:58.990Z,10.33
2019-03-20T13:47:30.581Z,10.00
2019-03-20T13:50:01.219Z,9.90
2019-03-20T13:52:32.916Z,9.57
2019-03-20T13:55:03.094Z,10.87
2019-03-20T13:57:35.058Z,11.90
2019-03-20T14:00:10.139Z,10.20
2019-03-20T14:02:40.864Z,8.67
2019-03-20T14:05:11.018Z,9.57
2019-03-20T14:07:41.570Z,9.33
2019-03-20T14:10:24.319Z,14.00
2019-03-20T14:12:47.262Z,7.90
2019-03-20T14:15:17.591Z,9.13
2019-03-20T14:17:49.686Z,10.93
2019-03-20T14:20:24.384Z,8.30
2019-03-20T14:22:56.678Z,5.63
2019-03-20T14:25:27.322Z,7.80
2019-03-20T14:27:57.546Z,10.40
2019-03-20T14:30:28.171Z,6.73
2019-03-20T14:32:58.988Z,8.00
2019-03-20T14:35:30.556Z,9.83
2019-03-20T14:38:01.190Z,8.20
2019-03-20T14:40:36.202Z,7.80
2019-03-20T14:43:04.935Z,6.43
2019-03-20T14:45:35.548Z,7.20
2019-03-20T14:48:08.312Z,7.43
2019-03-20T14:50:40.647Z,9.90
2019-03-20T14:53:12.055Z,10.83
2019-03-20T14:55:42.698Z,10.70
2019-03-20T14:58:13.336Z,11.23
2019-03-20T15:00:45.224Z,6.60
2019-03-20T15:03:15.832Z,6.90
2019-03-20T15:05:46.868Z,8.40
2019-03-20T15:08:18.324Z,8.47
2019-03-20T15:10:48.506Z,13.67
2019-03-20T15:13:19.416Z,9.10
2019-03-20T15:15:59.931Z,8.50
2019-03-20T15:18:30.637Z,8.27
2019-03-20T15:21:01.626Z,8.40
2019-03-20T15:23:33.226Z,7.93
2019-03-20T15:26:06.217Z,5.77
2019-03-20T15:28:38.984Z,5.90
2019-03-20T15:31:10.271Z,5.87
2019-03-20T15:33:42.039Z,5.63
2019-03-20T15:36:21.833Z,5.60
2019-03-20T15:38:52.839Z,6.53
2019-03-20T15:41:24.067Z,5.57
2019-03-20T15:44:02.442Z,7.43
2019-03-20T15:46:29.058Z,5.53
2019-03-20T15:49:01.390Z,9.47
2019-03-20T15:51:32.025Z,8.03
2019-03-20T15:54:02.215Z,10.00
2019-03-20T15:56:33.735Z,12.17
2019-03-20T15:59:04.477Z,6.57
2019-03-20T16:01:35.770Z,10.23
2019-03-20T16:04:06.978Z,8.10
2019-03-20T16:06:37.468Z,7.63
2019-03-20T16:09:09.185Z,7.20
2019-03-20T16:11:40.377Z,5.77
2019-03-20T16:14:11.554Z,7.83
2019-03-20T16:16:41.964Z,7.47
2019-03-20T16:19:13.254Z,11.67
2019-03-20T16:21:47.915Z,15.37
2019-03-20T16:24:18.902Z,8.07
2019-03-20T16:26:50.522Z,7.17
2019-03-20T16:29:23.048Z,6.23
2019-03-20T16:31:54.141Z,8.10
2019-03-20T16:34:24.688Z,6.20
2019-03-20T16:36:56.291Z,6.67
2019-03-20T16:39:26.943Z,6.87
2019-03-20T16:41:58.683Z,5.97
2019-03-20T16:44:29.827Z,7.27
2019-03-20T16:47:00.746Z,13.10
2019-03-20T16:49:32.459Z,5.73
2019-03-20T16:52:04.427Z,8.17
2019-03-20T16:54:37.475Z,7.17
2019-03-20T16:57:09.236Z,11.00
2019-03-20T16:59:40.607Z,5.43
2019-03-20T17:02:11.301Z,4.97
2019-03-20T17:04:41.499Z,4.97
2019-03-20T17:07:13.852Z,4.33
2019-03-20T17:09:45.878Z,7.20
2019-03-20T17:12:17.302Z,8.03
2019-03-20T17:14:47.560Z,6.77
2019-03-20T17:17:18.643Z,7.30
2019-03-20T17:19:48.867Z,5.67
2019-03-20T17:22:19.681Z,8.90
2019-03-20T17:24:50.932Z,7.17
2019-03-20T17:27:22.735Z,9.50
2019-03-20T17:29:54.254Z,8.37
2019-03-20T17:32:25.428Z,9.47
2019-03-20T17:34:56.080Z,8.77
2019-03-20T17:37:27.291Z,9.73
2019-03-20T17:40:01.446Z,11.70
2019-03-20T17:42:37.784Z,17.93
2019-03-20T17:45:10.468Z,9.17
2019-03-20T17:47:42.887Z,9.30
2019-03-20T17:50:20.943Z,10.20
2019-03-20T17:52:52.255Z,8.77
2019-03-20T17:55:24.113Z,9.83
2019-03-20T17:57:56.914Z,12.20
2019-03-20T18:00:36.010Z,9.53
2019-03-20T18:03:08.952Z,10.40
2019-03-20T18:05:40.441Z,12.00
2019-03-20T18:08:11.835Z,8.30
2019-03-20T18:10:43.721Z,12.00
2019-03-20T18:13:16.465Z,9.57
2019-03-20T18:15:47.659Z,12.57
2019-03-20T18:18:19.005Z,11.10
2019-03-20T18:20:54.424Z,9.30
2019-03-20T18:23:27.805Z,14.97
2019-03-20T18:25:58.942Z,12.07
2019-03-20T18:28:33.209Z,15.70
2019-03-20T18:31:04.847Z,13.57
2019-03-20T18:33:36.780Z,12.00
2019-03-20T18:36:07.320Z,11.57
2019-03-20T18:38:38.132Z,13.13
2019-03-20T18:41:08.376Z,11.07
2019-03-20T18:43:38.810Z,13.97
2019-03-20T18:46:11.184Z,10.70
2019-03-20T18:48:43.345Z,14.23
2019-03-20T18:51:39.821Z,13.30
2019-03-20T18:54:15.049Z,12.33
2019-03-20T18:56:47.871Z,13.23
2019-03-20T18:59:19.573Z,17.00
2019-03-20T19:01:51.888Z,12.40
2019-03-20T19:04:22.136Z,13.10
2019-03-20T19:06:53.366Z,15.83
2019-03-20T19:09:24.356Z,12.20
2019-03-20T19:11:55.629Z,14.47
2019-03-20T19:14:26.202Z,16.10
2019-03-20T19:16:57.388Z,18.73
2019-03-20T19:19:28.157Z,14.40
2019-03-20T19:21:58.500Z,15.33
2019-03-20T19:24:29.045Z,16.27
2019-03-20T19:27:01.081Z,15.47
2019-03-20T19:29:32.796Z,15.80
2019-03-20T19:32:04.621Z,14.93
2019-03-20T19:34:36.257Z,16.27
2019-03-20T19:37:06.901Z,16.33
2019-03-20T19:39:38.634Z,14.10
2019-03-20T19:42:19.556Z,15.07
2019-03-20T19:44:44.112Z,18.17
2019-03-20T19:47:16.613Z,19.60
2019-03-20T19:49:47.581Z,15.40
2019-03-20T19:52:20.010Z,16.17
2019-03-20T19:54:52.366Z,17.37
2019-03-20T19:57:24.268Z,15.37
2019-03-20T19:59:56.814Z,19.10
2019-03-20T20:02:27.812Z,14.60
2019-03-20T20:05:00.082Z,21.07
2019-03-20T20:07:30.703Z,19.37
2019-03-20T20:10:01.751Z,22.27
2019-03-20T20:12:36.302Z,18.60
2019-03-20T20:15:09.497Z,21.03
2019-03-20T20:17:40.405Z,20.13
2019-03-20T20:20:16.024Z,22.43
2019-03-20T20:22:48.385Z,23.03
2019-03-20T20:25:19.569Z,26.03
2019-03-20T20:27:50.668Z,17.43
2019-03-20T20:30:22.032Z,17.60
2019-03-20T20:32:55.482Z,22.03
2019-03-20T20:35:27.517Z,18.17
2019-03-20T20:37:58.040Z,15.83
2019-03-20T20:40:29.960Z,18.73
2019-03-20T20:43:01.810Z,18.27
2019-03-20T20:45:33.166Z,27.27
2019-03-20T20:48:04.084Z,19.70
2019-03-20T20:50:36.709Z,18.37
2019-03-20T20:53:09.163Z,25.47
2019-03-20T20:55:39.733Z,21.33
2019-03-20T20:58:10.097Z,24.33
2019-03-20T21:00:40.652Z,19.13
2019-03-20T21:03:11.239Z,20.37
2019-03-20T21:05:42.402Z,22.77
2019-03-20T21:08:13.650Z,22.77
2019-03-20T21:10:45.947Z,20.40
2019-03-20T21:13:18.978Z,20.67
2019-03-20T21:15:54.294Z,23.83
2019-03-20T21:19:09.544Z,22.47
2019-03-20T21:22:25.484Z,29.50
2019-03-20T21:24:56.239Z,26.83
2019-03-20T21:28:05.275Z,28.37
2019-03-20T21:31:06.608Z,23.37
2019-03-20T21:34:17.234Z,24.40
2019-03-20T21:37:23.156Z,23.53
2019-03-20T21:39:54.835Z,22.23
2019-03-20T21:43:06.960Z,22.17
2019-03-20T21:46:43.429Z,21.37
2019-03-20T21:49:16.493Z,22.40
2019-03-20T21:51:49.239Z,18.97
2019-03-20T21:54:56.840Z,22.63
2019-03-20T21:57:54.596Z,25.30
2019-03-20T22:01:20.323Z,28.83
2019-03-20T22:03:51.490Z,30.50
2019-03-20T22:07:12.171Z,37.33
2019-03-20T22:10:34.528Z,25.37
2019-03-20T22:13:30.387Z,22.50
2019-03-20T22:16:20.582Z,26.43
2019-03-20T22:19:44.477Z,21.73
2019-03-20T22:23:05.903Z,25.50
2019-03-20T22:26:22.153Z,23.20
2019-03-20T22:29:10.930Z,21.20
2019-03-20T22:31:48.064Z,22.17
2019-03-20T22:35:05.384Z,23.60
2019-03-20T22:37:36.552Z,22.87
2019-03-20T22:41:03.622Z,19.33
2019-03-20T22:43:50.717Z,23.67
2019-03-20T22:46:56.683Z,15.87
2019-03-20T22:50:05.233Z,17.93
2019-03-20T22:53:23.073Z,16.27
2019-03-20T22:56:17.416Z,19.03
2019-03-20T22:58:50.921Z,17.43
2019-03-20T23:01:56.234Z,18.70
2019-03-20T23:04:39.182Z,22.03
2019-03-20T23:07:11.048Z,18.80
2019-03-20T23:09:45.687Z,18.33
2019-03-20T23:12:18.874Z,19.90
2019-03-20T23:14:51.760Z,18.93
2019-03-20T23:17:24.118Z,19.57
2019-03-20T23:19:58.223Z,18.80
2019-03-20T23:22:31.980Z,20.90
2019-03-20T23:25:03.226Z,22.37
2019-03-20T23:27:34.357Z,18.47
2019-03-20T23:30:11.775Z,20.50
2019-03-20T23:32:44.189Z,21.93
2019-03-20T23:35:18.183Z,19.17
2019-03-20T23:37:51.189Z,17.10
2019-03-20T23:40:23.191Z,18.20
2019-03-20T23:42:54.901Z,18.27
2019-03-20T23:45:28.132Z,18.03
2019-03-20T23:48:03.212Z,23.43
2019-03-20T23:50:35.282Z,23.17
2019-03-20T23:53:07.340Z,16.97
2019-03-20T23:55:38.055Z,18.03
2019-03-20T23:58:14.493Z,17.87
